Time;durP1;ratioP1;P1;durP2;ratioP2;P2;SDS_P1;SDS_P2;PMS_P1;PMS_P2;Temp;Humidity;BMP_temperature;BMP_pressure;BME280_temperature;BME280_humidity;BME280_pressure;Samples;Min_cycle;Max_cycle;Signal;HPM_P1;HPM_P2
2023/12/18 00:02:04;;;;;;;31.37;15.43;;;8.10;1.00;;;;;;5112462;28;20183;-50
2023/12/18 00:04:30;;;;;;;29.50;13.60;;;8.10;1.00;;;;;;5112276;28;20594;-50
2023/12/18 00:06:55;;;;;;;31.33;14.43;;;8.10;1.00;;;;;;5112570;28;20228;-50
2023/12/18 00:09:21;;;;;;;31.17;14.80;;;8.10;1.00;;;;;;5112425;28;20233;-49
2023/12/18 00:11:46;;;;;;;34.47;14.90;;;8.00;1.00;;;;;;5112177;28;20180;-50
2023/12/18 00:14:12;;;;;;;32.67;15.50;;;8.10;1.00;;;;;;5115447;28;20216;-50
2023/12/18 00:16:39;;;;;;;27.90;14.07;;;8.00;10.20;;;;;;5116273;28;20310;-50
2023/12/18 00:19:05;;;;;;;36.17;15.83;;;8.00;44.00;;;;;;5116073;28;20442;-50
2023/12/18 00:21:30;;;;;;;35.90;15.77;;;8.00;70.00;;;;;;5116308;28;20184;-50
2023/12/18 00:23:56;;;;;;;43.90;16.40;;;8.00;99.90;;;;;;5115162;28;20717;-50
2023/12/18 00:26:23;;;;;;;36.80;15.90;;;8.00;99.90;;;;;;5098093;28;20653;-50
2023/12/18 00:28:48;;;;;;;37.87;15.60;;;8.00;99.90;;;;;;5116120;28;20270;-50
2023/12/18 00:31:14;;;;;;;33.10;15.90;;;8.00;99.90;;;;;;5115980;28;20446;-50
2023/12/18 00:33:39;;;;;;;30.40;15.50;;;8.00;99.90;;;;;;5115772;28;20196;-50
2023/12/18 00:36:05;;;;;;;38.40;15.07;;;8.00;99.90;;;;;;5115714;28;20188;-50
2023/12/18 00:38:31;;;;;;;35.33;15.93;;;8.00;99.90;;;;;;5116089;28;20227;-50
2023/12/18 00:40:57;;;;;;;46.87;16.40;;;8.00;99.90;;;;;;5116172;28;20176;-50
2023/12/18 00:43:22;;;;;;;39.83;16.90;;;8.00;99.90;;;;;;5116144;28;20184;-49
2023/12/18 00:45:48;;;;;;;27.40;13.83;;;8.00;99.90;;;;;;5115627;28;20414;-49
2023/12/18 00:48:14;;;;;;;39.40;15.80;;;8.00;99.90;;;;;;5115419;28;20208;-49
2023/12/18 00:50:40;;;;;;;29.70;15.67;;;8.00;99.90;;;;;;5115509;28;20464;-50
2023/12/18 00:53:05;;;;;;;32.27;14.73;;;8.00;99.90;;;;;;5115398;28;20191;-49
2023/12/18 00:55:31;;;;;;;34.13;15.60;;;8.00;99.90;;;;;;5115308;28;20228;-49
2023/12/18 00:57:56;;;;;;;36.80;16.97;;;8.00;99.90;;;;;;5115814;28;20173;-49
2023/12/18 01:00:22;;;;;;;30.37;15.23;;;8.10;99.90;;;;;;5115570;28;20264;-49
2023/12/18 01:02:47;;;;;;;34.27;15.30;;;8.00;99.90;;;;;;5115110;28;20911;-50
2023/12/18 01:05:16;;;;;;;30.80;15.30;;;8.00;99.90;;;;;;5115528;28;20253;-50
2023/12/18 01:07:42;;;;;;;45.67;16.37;;;8.00;99.90;;;;;;5115018;28;20235;-50
2023/12/18 01:10:08;;;;;;;38.63;15.73;;;8.00;99.90;;;;;;5115376;28;20516;-50
2023/12/18 01:12:34;;;;;;;28.97;14.50;;;8.00;99.90;;;;;;5115261;28;20418;-50
2023/12/18 01:15:00;;;;;;;35.80;16.43;;;8.00;99.90;;;;;;5114910;28;20514;-49
2023/12/18 01:17:25;;;;;;;39.13;16.07;;;8.00;99.90;;;;;;5115512;28;20187;-50
2023/12/18 01:19:51;;;;;;;34.87;15.20;;;8.00;99.90;;;;;;5115015;28;20271;-50
2023/12/18 01:22:16;;;;;;;31.87;15.13;;;8.10;99.90;;;;;;5115070;28;20181;-50
2023/12/18 01:24:42;;;;;;;38.70;16.87;;;8.10;99.90;;;;;;5113788;28;20184;-50
2023/12/18 01:27:07;;;;;;;43.60;16.67;;;8.00;99.90;;;;;;5114840;28;20265;-50
2023/12/18 01:29:33;;;;;;;39.80;16.73;;;8.00;99.90;;;;;;5114750;28;20168;-50
2023/12/18 01:31:59;;;;;;;29.87;15.70;;;8.10;99.90;;;;;;5115041;28;20172;-50
2023/12/18 01:34:24;;;;;;;43.53;15.50;;;8.10;99.90;;;;;;5115068;28;20292;-50
2023/12/18 01:36:50;;;;;;;46.00;16.10;;;8.10;99.90;;;;;;5114645;28;20220;-50
2023/12/18 01:39:15;;;;;;;37.43;16.00;;;8.10;99.90;;;;;;5114779;28;20195;-50
2023/12/18 01:41:41;;;;;;;31.97;14.47;;;8.10;99.90;;;;;;5114766;28;20176;-50
2023/12/18 01:44:06;;;;;;;33.87;14.87;;;8.10;99.90;;;;;;5114671;28;20176;-50
2023/12/18 01:46:35;;;;;;;36.97;14.13;;;8.10;99.90;;;;;;5114817;28;20659;-50
2023/12/18 01:49:01;;;;;;;32.60;15.40;;;8.00;99.90;;;;;;5114723;28;20241;-50
2023/12/18 01:51:29;;;;;;;39.37;16.50;;;8.00;99.90;;;;;;5114910;28;20506;-50
2023/12/18 01:53:58;;;;;;;29.00;15.80;;;8.10;99.90;;;;;;5114343;28;20978;-50
2023/12/18 01:56:25;;;;;;;28.33;15.67;;;8.10;99.90;;;;;;5114661;28;20411;-50
2023/12/18 01:58:54;;;;;;;40.73;16.83;;;8.10;99.90;;;;;;5114333;28;20783;-50
2023/12/18 02:01:19;;;;;;;33.93;14.70;;;8.00;99.90;;;;;;5114122;28;20979;-50
2023/12/18 02:03:45;;;;;;;38.60;16.10;;;8.00;99.90;;;;;;5114263;28;20475;-50
2023/12/18 02:06:13;;;;;;;31.17;14.80;;;8.10;99.90;;;;;;5114242;28;20237;-50
2023/12/18 02:08:39;;;;;;;36.13;16.83;;;8.00;99.90;;;;;;5114404;28;20204;-50
2023/12/18 02:11:05;;;;;;;29.53;14.50;;;8.00;99.90;;;;;;5114111;28;20420;-50
2023/12/18 02:13:31;;;;;;;32.53;16.93;;;8.10;99.90;;;;;;5113796;28;20553;-50
2023/12/18 02:15:59;;;;;;;36.33;16.57;;;8.10;99.90;;;;;;5114586;28;20192;-50
2023/12/18 02:18:25;;;;;;;34.77;16.30;;;8.10;99.90;;;;;;5114288;28;20180;-50
2023/12/18 02:20:51;;;;;;;35.87;16.93;;;8.10;99.90;;;;;;5113893;28;20427;-50
2023/12/18 02:23:16;;;;;;;30.43;16.57;;;8.10;99.90;;;;;;5112963;28;20610;-50
2023/12/18 02:25:42;;;;;;;31.60;16.90;;;8.10;99.90;;;;;;5112921;28;20175;-50
2023/12/18 02:28:10;;;;;;;38.17;17.20;;;8.10;99.90;;;;;;5113781;28;20177;-48
2023/12/18 02:30:36;;;;;;;24.90;15.73;;;8.10;99.90;;;;;;5113663;28;20186;-49
2023/12/18 02:33:01;;;;;;;39.53;17.50;;;8.00;1.00;;;;;;5113458;28;20509;-49
2023/12/18 02:35:27;;;;;;;42.17;18.47;;;8.00;1.00;;;;;;5113253;28;20217;-49
2023/12/18 02:37:52;;;;;;;52.60;18.83;;;8.00;1.00;;;;;;5113582;28;20181;-49
2023/12/18 02:40:18;;;;;;;37.37;17.37;;;8.00;99.90;;;;;;5113514;28;20207;-49
2023/12/18 02:42:44;;;;;;;33.77;17.30;;;7.90;99.90;;;;;;5113395;28;20698;-50
2023/12/18 02:45:19;;;;;;;46.30;17.00;;;7.90;1.00;;;;;;5113475;28;20526;-49
2023/12/18 02:47:44;;;;;;;29.43;16.60;;;7.90;1.00;;;;;;5113246;28;20621;-49
2023/12/18 02:50:10;;;;;;;40.43;17.73;;;7.90;1.00;;;;;;5113226;28;20413;-49
2023/12/18 02:52:36;;;;;;;38.00;17.50;;;7.90;91.10;;;;;;5113374;28;20184;-49
2023/12/18 02:55:02;;;;;;;37.30;17.40;;;7.90;99.90;;;;;;5111834;28;20207;-48
2023/12/18 02:57:27;;;;;;;53.70;18.97;;;7.90;99.90;;;;;;5113438;28;20223;-48
2023/12/18 02:59:53;;;;;;;38.83;17.83;;;7.90;99.90;;;;;;5113190;28;20179;-49
2023/12/18 03:02:19;;;;;;;38.03;18.03;;;7.80;99.90;;;;;;5113184;28;20699;-48
2023/12/18 03:04:44;;;;;;;39.97;18.00;;;7.90;99.90;;;;;;5113328;28;20211;-48
2023/12/18 03:07:10;;;;;;;39.90;17.93;;;7.80;99.90;;;;;;5112586;28;20232;-48
2023/12/18 03:09:36;;;;;;;44.40;19.17;;;7.90;99.90;;;;;;5113114;28;20283;-49
2023/12/18 03:12:02;;;;;;;36.23;18.63;;;7.90;71.00;;;;;;5112872;28;20442;-48
2023/12/18 03:14:28;;;;;;;37.00;18.40;;;7.90;99.90;;;;;;5111333;28;20204;-48
2023/12/18 03:16:53;;;;;;;37.03;18.93;;;7.90;1.00;;;;;;5112780;28;20424;-49
2023/12/18 03:19:19;;;;;;;33.00;18.93;;;8.00;1.00;;;;;;5112619;28;20187;-48
2023/12/18 03:21:46;;;;;;;40.73;19.97;;;7.90;1.00;;;;;;5112949;28;20204;-49
2023/12/18 03:24:11;;;;;;;48.80;20.60;;;8.00;1.00;;;;;;5112996;28;20192;-49
2023/12/18 03:26:37;;;;;;;48.53;20.40;;;7.90;1.00;;;;;;5112766;28;20409;-49
2023/12/18 03:29:03;;;;;;;46.67;18.80;;;7.90;6.00;;;;;;5112319;28;20606;-50
2023/12/18 03:31:28;;;;;;;42.97;19.63;;;7.90;15.20;;;;;;5112330;28;20182;-49
2023/12/18 03:33:54;;;;;;;44.33;19.93;;;8.00;99.90;;;;;;5112552;28;20605;-50
2023/12/18 03:36:19;;;;;;;49.30;20.53;;;7.90;4.20;;;;;;5112727;28;20207;-49
2023/12/18 03:38:45;;;;;;;45.57;20.57;;;7.90;99.90;;;;;;5112667;28;20196;-49
2023/12/18 03:41:10;;;;;;;37.37;19.77;;;7.90;1.00;;;;;;5112404;28;20196;-49
2023/12/18 03:43:36;;;;;;;39.47;19.33;;;7.90;1.00;;;;;;5112529;28;20539;-50
2023/12/18 03:46:02;;;;;;;39.30;20.20;;;7.90;1.00;;;;;;5112627;28;20177;-50
2023/12/18 03:48:27;;;;;;;48.50;20.70;;;7.90;1.00;;;;;;5114994;28;20266;-50
2023/12/18 03:50:53;;;;;;;49.13;24.10;;;7.90;1.00;;;;;;5116728;28;20188;-50
2023/12/18 03:53:18;;;;;;;42.23;21.10;;;7.90;99.90;;;;;;5116810;28;20181;-50
2023/12/18 03:55:44;;;;;;;42.07;21.30;;;7.90;99.90;;;;;;5116766;28;20178;-50
2023/12/18 03:58:09;;;;;;;50.37;21.70;;;7.80;99.90;;;;;;5116491;28;20194;-50
2023/12/18 04:00:35;;;;;;;41.63;21.90;;;7.90;1.00;;;;;;5116659;28;20180;-50
2023/12/18 04:03:04;;;;;;;39.70;21.70;;;7.80;1.00;;;;;;5116743;28;20625;-50
2023/12/18 04:05:29;;;;;;;37.43;21.40;;;7.80;33.60;;;;;;5116866;28;20274;-50
2023/12/18 04:07:55;;;;;;;37.70;21.30;;;7.80;99.90;;;;;;5116030;28;20898;-50
2023/12/18 04:10:20;;;;;;;45.63;22.33;;;7.90;99.90;;;;;;5116822;28;20189;-50
2023/12/18 04:12:46;;;;;;;49.67;20.83;;;7.80;1.00;;;;;;5116403;28;20177;-50
2023/12/18 04:15:11;;;;;;;47.53;22.87;;;7.80;1.00;;;;;;5116343;28;20722;-50
2023/12/18 04:17:37;;;;;;;42.10;21.20;;;7.80;99.90;;;;;;5116257;28;20549;-50
2023/12/18 04:20:04;;;;;;;33.37;21.47;;;7.80;99.90;;;;;;5116446;28;20188;-50
2023/12/18 04:22:30;;;;;;;45.00;21.53;;;7.80;99.30;;;;;;5116597;28;20183;-50
2023/12/18 04:24:56;;;;;;;40.77;20.83;;;7.80;99.90;;;;;;5116198;28;20453;-50
2023/12/18 04:27:21;;;;;;;44.43;23.67;;;7.80;99.90;;;;;;5115995;28;20415;-50
2023/12/18 04:29:47;;;;;;;45.30;23.73;;;7.80;99.90;;;;;;5115964;28;20175;-50
2023/12/18 04:32:12;;;;;;;50.47;23.83;;;7.80;99.90;;;;;;5116089;28;20221;-50
2023/12/18 04:34:39;;;;;;;51.00;24.27;;;7.80;1.00;;;;;;5115937;28;20222;-50
2023/12/18 04:37:05;;;;;;;43.53;23.73;;;7.80;1.00;;;;;;5116083;28;20195;-48
2023/12/18 04:39:31;;;;;;;60.70;24.50;;;7.80;98.90;;;;;;5116284;28;20410;-50
2023/12/18 04:41:57;;;;;;;49.03;23.90;;;7.80;99.90;;;;;;5115851;28;20233;-50
2023/12/18 04:44:23;;;;;;;44.53;23.93;;;7.80;99.90;;;;;;5115696;28;20433;-50
2023/12/18 04:46:48;;;;;;;67.83;24.40;;;7.80;99.90;;;;;;5115950;28;20189;-50
2023/12/18 04:49:14;;;;;;;52.53;23.70;;;7.80;99.90;;;;;;5115572;28;20175;-51
2023/12/18 04:51:39;;;;;;;46.93;24.73;;;7.70;1.00;;;;;;5115589;28;20201;-50
2023/12/18 04:54:05;;;;;;;54.07;26.07;;;7.70;1.00;;;;;;5115642;28;20731;-50
2023/12/18 04:56:30;;;;;;;48.73;24.50;;;7.70;99.90;;;;;;5115830;28;20259;-51
2023/12/18 04:58:56;;;;;;;52.83;26.43;;;7.70;99.90;;;;;;5115113;28;20181;-50
2023/12/18 05:01:22;;;;;;;61.70;26.60;;;7.70;1.00;;;;;;5115580;28;20177;-50
2023/12/18 05:03:47;;;;;;;46.97;25.67;;;7.70;99.90;;;;;;5115542;28;20661;-51
2023/12/18 05:06:20;;;;;;;50.87;26.70;;;7.70;1.00;;;;;;5115208;28;20298;-51
2023/12/18 05:08:50;;;;;;;47.43;25.87;;;7.70;1.00;;;;;;5115408;28;20184;-51
2023/12/18 05:11:20;;;;;;;53.50;28.27;;;7.60;99.90;;;;;;5115435;28;20456;-51
2023/12/18 05:13:46;;;;;;;58.23;28.77;;;7.60;1.00;;;;;;5115049;28;20549;-51
2023/12/18 05:16:13;;;;;;;49.10;28.43;;;7.60;99.90;;;;;;5113830;28;20810;-51
2023/12/18 05:18:39;;;;;;;69.10;30.67;;;7.60;1.00;;;;;;5115246;28;20419;-51
2023/12/18 05:21:05;;;;;;;57.07;28.87;;;7.60;1.00;;;;;;5115291;28;20414;-50
2023/12/18 05:23:30;;;;;;;49.97;28.53;;;7.60;1.00;;;;;;5115119;28;20512;-51
2023/12/18 05:25:56;;;;;;;57.17;28.50;;;7.60;1.00;;;;;;5115086;28;20191;-51
2023/12/18 05:28:22;;;;;;;66.67;30.73;;;7.50;1.00;;;;;;5114929;28;20172;-51
2023/12/18 05:30:47;;;;;;;60.23;28.67;;;7.50;1.00;;;;;;5114808;28;20183;-51
2023/12/18 05:33:13;;;;;;;54.00;27.20;;;7.50;1.00;;;;;;5114729;28;20270;-51
2023/12/18 05:35:38;;;;;;;56.60;29.30;;;7.50;9.60;;;;;;5114571;28;20225;-51
2023/12/18 05:38:04;;;;;;;58.80;30.60;;;7.50;17.60;;;;;;5114885;28;20183;-51
2023/12/18 05:40:29;;;;;;;67.37;29.97;;;7.50;20.80;;;;;;5115057;28;20207;-51
2023/12/18 05:42:56;;;;;;;70.00;31.53;;;7.50;23.40;;;;;;5114526;28;20183;-51
2023/12/18 05:45:21;;;;;;;58.20;29.43;;;7.50;43.80;;;;;;5114388;28;20695;-51
2023/12/18 05:47:47;;;;;;;57.50;29.17;;;7.40;73.30;;;;;;5114526;28;20413;-51
2023/12/18 05:50:13;;;;;;;62.97;30.03;;;7.50;90.50;;;;;;5114435;28;20180;-51
2023/12/18 05:52:38;;;;;;;68.50;30.60;;;7.50;94.60;;;;;;5114135;28;20237;-51
2023/12/18 05:55:04;;;;;;;66.00;31.20;;;7.50;97.20;;;;;;5114617;28;20202;-51
2023/12/18 05:57:30;;;;;;;59.53;29.13;;;7.50;96.60;;;;;;5114766;28;20187;-51
2023/12/18 05:59:56;;;;;;;52.57;29.70;;;7.50;95.60;;;;;;5114094;28;20444;-51
2023/12/18 06:02:21;;;;;;;60.83;30.37;;;7.50;99.10;;;;;;5114455;28;20187;-51
2023/12/18 06:04:47;;;;;;;59.80;32.67;;;7.50;99.70;;;;;;5114070;28;20184;-51
2023/12/18 06:07:12;;;;;;;62.40;31.70;;;7.50;97.30;;;;;;5113828;28;20317;-51
2023/12/18 06:09:39;;;;;;;63.63;32.70;;;7.50;90.80;;;;;;5114117;28;20180;-51
2023/12/18 06:12:05;;;;;;;59.87;31.67;;;7.50;95.60;;;;;;5113365;28;20219;-51
2023/12/18 06:14:31;;;;;;;56.80;31.07;;;7.50;83.60;;;;;;5114357;28;20457;-51
2023/12/18 06:16:57;;;;;;;76.47;33.20;;;7.50;97.90;;;;;;5114032;28;20776;-51
2023/12/18 06:19:22;;;;;;;61.20;31.57;;;7.50;99.90;;;;;;5114038;28;20184;-52
2023/12/18 06:21:48;;;;;;;62.63;33.30;;;7.50;99.90;;;;;;5114142;28;20176;-51
2023/12/18 06:24:14;;;;;;;64.90;34.33;;;7.50;98.10;;;;;;5114061;28;20184;-51
2023/12/18 06:26:39;;;;;;;73.70;33.90;;;7.50;96.70;;;;;;5113909;28;20182;-51
2023/12/18 06:29:05;;;;;;;57.43;31.93;;;7.50;93.20;;;;;;5113787;28;20254;-51
2023/12/18 06:31:30;;;;;;;71.77;32.90;;;7.60;78.90;;;;;;5113848;28;20180;-50
2023/12/18 06:33:56;;;;;;;64.23;33.50;;;7.60;57.60;;;;;;5113406;28;20256;-51
2023/12/18 06:36:21;;;;;;;64.50;32.93;;;7.60;31.00;;;;;;5113667;28;20192;-50
2023/12/18 06:38:48;;;;;;;64.53;33.57;;;7.50;30.10;;;;;;5113521;28;20207;-51
2023/12/18 06:41:14;;;;;;;74.23;35.23;;;7.50;35.40;;;;;;5113826;28;20553;-51
2023/12/18 06:43:40;;;;;;;65.90;33.33;;;7.60;30.10;;;;;;5113635;28;20450;-50
2023/12/18 06:46:06;;;;;;;64.27;33.73;;;7.60;14.60;;;;;;5113407;28;20833;-50
2023/12/18 06:48:32;;;;;;;74.73;33.70;;;7.60;1.00;;;;;;5113844;28;20189;-51
2023/12/18 06:50:57;;;;;;;75.90;33.67;;;7.60;1.00;;;;;;5113463;28;20221;-50
2023/12/18 06:53:23;;;;;;;75.53;34.27;;;7.60;1.00;;;;;;5113331;28;20868;-50
2023/12/18 06:55:49;;;;;;;72.70;32.83;;;7.60;1.00;;;;;;5113248;28;20185;-51
2023/12/18 06:58:15;;;;;;;73.17;33.23;;;7.60;1.00;;;;;;5113062;28;20203;-50
2023/12/18 07:00:41;;;;;;;72.20;34.17;;;7.70;1.00;;;;;;5113294;28;20184;-51
2023/12/18 07:03:07;;;;;;;72.37;34.13;;;7.70;1.00;;;;;;5113288;28;20472;-51
2023/12/18 07:05:33;;;;;;;76.77;34.07;;;7.70;1.00;;;;;;5113166;28;20418;-50
2023/12/18 07:07:58;;;;;;;73.50;33.47;;;7.60;1.00;;;;;;5113374;28;20311;-52
2023/12/18 07:10:24;;;;;;;83.53;33.77;;;7.60;1.00;;;;;;5094674;28;20215;-50
2023/12/18 07:12:49;;;;;;;80.23;33.37;;;7.70;1.00;;;;;;5113206;28;20201;-51
2023/12/18 07:15:15;;;;;;;71.27;34.50;;;7.70;1.00;;;;;;5111827;28;20576;-51
2023/12/18 07:17:41;;;;;;;79.83;33.77;;;7.60;1.00;;;;;;5112801;28;20183;-51
2023/12/18 07:20:08;;;;;;;73.17;34.57;;;7.60;1.00;;;;;;5094880;28;20441;-51
2023/12/18 07:22:35;;;;;;;65.87;32.77;;;7.60;1.00;;;;;;5113149;28;20184;-52
2023/12/18 07:25:03;;;;;;;72.00;34.10;;;7.60;1.00;;;;;;5113093;28;20421;-52
2023/12/18 07:27:29;;;;;;;73.83;35.10;;;7.60;1.00;;;;;;5112738;28;20415;-50
2023/12/18 07:29:55;;;;;;;80.13;35.90;;;7.60;1.00;;;;;;5112593;28;20517;-52
2023/12/18 07:32:21;;;;;;;75.70;35.60;;;7.60;1.00;;;;;;5112628;28;20184;-50
2023/12/18 07:34:46;;;;;;;70.57;35.63;;;7.60;1.00;;;;;;5112490;28;20208;-50
2023/12/18 07:37:13;;;;;;;88.97;37.67;;;7.60;1.00;;;;;;5112781;28;20421;-51
2023/12/18 07:39:38;;;;;;;70.17;34.10;;;7.60;1.00;;;;;;5112950;28;20271;-51
2023/12/18 07:42:04;;;;;;;83.70;37.87;;;7.60;1.00;;;;;;5112773;28;20509;-51
2023/12/18 07:44:30;;;;;;;80.57;35.23;;;7.60;1.00;;;;;;5112713;28;20191;-51
2023/12/18 07:46:55;;;;;;;85.57;36.53;;;7.60;1.00;;;;;;5112494;28;20256;-52
2023/12/18 07:49:22;;;;;;;76.17;35.20;;;7.50;1.00;;;;;;5112451;28;20188;-51
2023/12/18 07:51:48;;;;;;;75.80;36.20;;;7.50;10.70;;;;;;5112725;28;20210;-51
2023/12/18 07:54:14;;;;;;;85.77;37.03;;;7.50;24.80;;;;;;5112358;28;20955;-51
2023/12/18 07:56:40;;;;;;;83.33;37.17;;;7.60;9.60;;;;;;5112618;28;20578;-51
2023/12/18 07:59:07;;;;;;;78.70;35.80;;;7.50;1.00;;;;;;5112738;28;20550;-51
2023/12/18 08:01:33;;;;;;;82.53;36.70;;;7.50;21.80;;;;;;5112903;28;20260;-51
2023/12/18 08:03:59;;;;;;;69.50;34.53;;;7.60;33.90;;;;;;5112191;28;20784;-52
2023/12/18 08:06:25;;;;;;;94.73;37.87;;;7.60;15.30;;;;;;5112089;28;20466;-52
2023/12/18 08:08:50;;;;;;;75.67;35.17;;;7.50;10.20;;;;;;5112574;28;20208;-51
2023/12/18 08:11:16;;;;;;;90.97;38.23;;;7.60;38.50;;;;;;5112312;28;20184;-51
2023/12/18 08:13:42;;;;;;;90.93;36.40;;;7.60;34.40;;;;;;5112093;28;20208;-52
2023/12/18 08:16:09;;;;;;;93.00;38.67;;;7.60;23.90;;;;;;5112457;28;20193;-51
2023/12/18 08:18:34;;;;;;;94.60;37.60;;;7.60;16.20;;;;;;5112454;28;20489;-52
2023/12/18 08:21:00;;;;;;;90.57;36.57;;;7.60;22.50;;;;;;5111977;28;20449;-51
2023/12/18 08:23:26;;;;;;;93.93;38.43;;;7.50;25.30;;;;;;5112125;28;20218;-51
2023/12/18 08:25:52;;;;;;;98.03;39.30;;;7.60;37.30;;;;;;5112059;28;20187;-51
2023/12/18 08:28:17;;;;;;;85.80;38.33;;;7.50;43.90;;;;;;5112143;28;20512;-51
2023/12/18 08:30:44;;;;;;;93.37;35.93;;;7.50;61.80;;;;;;5112331;28;20656;-51
2023/12/18 08:33:09;;;;;;;92.23;36.87;;;7.60;62.80;;;;;;5112315;28;20198;-51
2023/12/18 08:35:35;;;;;;;90.40;38.57;;;7.60;44.20;;;;;;5116102;28;20457;-51
2023/12/18 08:38:00;;;;;;;99.70;38.60;;;7.60;23.20;;;;;;5116046;28;20176;-50
2023/12/18 08:40:26;;;;;;;78.83;36.77;;;7.60;30.80;;;;;;5116118;28;20179;-53
2023/12/18 08:42:52;;;;;;;100.80;39.80;;;7.60;29.70;;;;;;5116159;28;20225;-52
2023/12/18 08:45:17;;;;;;;105.73;40.33;;;7.60;41.20;;;;;;5115907;28;20191;-52
2023/12/18 08:47:43;;;;;;;85.47;37.87;;;7.60;45.40;;;;;;5115763;28;20717;-52
2023/12/18 08:50:09;;;;;;;90.33;37.30;;;7.60;60.60;;;;;;5115891;28;20691;-52
2023/12/18 08:52:35;;;;;;;87.13;38.63;;;7.60;25.70;;;;;;5115771;28;20182;-52
2023/12/18 08:55:01;;;;;;;95.00;38.50;;;7.60;34.10;;;;;;5115557;28;20212;-52
2023/12/18 08:57:27;;;;;;;80.83;37.30;;;7.50;45.60;;;;;;5115618;28;20466;-52
2023/12/18 08:59:54;;;;;;;78.90;39.23;;;7.60;53.70;;;;;;5115806;28;20413;-52
2023/12/18 09:02:19;;;;;;;89.00;39.13;;;7.60;47.80;;;;;;5115701;28;20433;-51
2023/12/18 09:04:45;;;;;;;94.07;36.97;;;7.60;43.80;;;;;;5113419;28;20440;-51
2023/12/18 09:07:11;;;;;;;87.77;38.50;;;7.50;47.90;;;;;;5114772;28;20722;-51
2023/12/18 09:09:39;;;;;;;89.07;39.47;;;7.50;63.40;;;;;;5115506;28;20256;-51
2023/12/18 09:12:08;;;;;;;100.40;39.63;;;7.50;57.10;;;;;;5115035;28;20176;-51
2023/12/18 09:14:34;;;;;;;90.80;38.10;;;7.50;85.80;;;;;;5114572;28;20881;-51
2023/12/18 09:16:59;;;;;;;105.90;40.47;;;7.50;95.20;;;;;;5115317;28;20449;-50
2023/12/18 09:19:25;;;;;;;113.27;41.90;;;7.50;92.20;;;;;;5115139;28;20180;-50
2023/12/18 09:21:51;;;;;;;88.33;38.60;;;7.50;92.00;;;;;;5115265;28;20188;-50
2023/12/18 09:24:16;;;;;;;100.13;38.93;;;7.50;97.70;;;;;;5115206;28;20414;-50
2023/12/18 09:26:42;;;;;;;88.43;36.33;;;7.60;97.20;;;;;;5114940;28;20177;-50
2023/12/18 09:29:08;;;;;;;96.40;37.70;;;7.60;91.90;;;;;;5115586;28;20181;-50
2023/12/18 09:31:33;;;;;;;95.27;38.20;;;7.60;79.10;;;;;;5115164;28;20459;-50
2023/12/18 09:33:59;;;;;;;95.53;36.90;;;7.70;72.20;;;;;;5114881;28;20295;-51
2023/12/18 09:36:25;;;;;;;107.23;40.07;;;7.70;29.00;;;;;;5115039;28;20191;-50
2023/12/18 09:38:50;;;;;;;91.10;36.43;;;7.70;19.70;;;;;;5114934;28;20177;-50
2023/12/18 09:41:26;;;;;;;77.00;36.47;;;7.70;23.30;;;;;;5114941;28;20179;-51
2023/12/18 09:43:52;;;;;;;94.00;37.90;;;7.70;17.20;;;;;;5114855;28;20187;-50
2023/12/18 09:46:23;;;;;;;77.37;35.80;;;7.70;12.00;;;;;;5111796;28;21025;-50
2023/12/18 09:48:50;;;;;;;83.90;36.50;;;7.70;19.50;;;;;;5114487;28;20919;-50
2023/12/18 09:51:19;;;;;;;87.87;35.87;;;7.70;6.70;;;;;;5114659;28;20410;-50
2023/12/18 09:53:46;;;;;;;94.60;36.27;;;7.80;1.00;;;;;;5114172;28;20418;-51
2023/12/18 09:56:12;;;;;;;91.47;37.80;;;7.90;1.00;;;;;;5114715;28;20414;-51
2023/12/18 09:58:40;;;;;;;84.77;35.80;;;7.70;1.00;;;;;;5114774;28;20802;-51
2023/12/18 10:01:07;;;;;;;90.07;35.77;;;7.70;1.00;;;;;;5114445;28;20425;-51
2023/12/18 10:03:33;;;;;;;77.53;35.40;;;7.80;1.00;;;;;;5114465;28;20439;-51
2023/12/18 10:05:59;;;;;;;82.23;35.77;;;7.80;1.00;;;;;;5112407;28;20997;-49
2023/12/18 10:08:24;;;;;;;80.30;34.20;;;7.90;1.00;;;;;;5114385;28;20178;-49
2023/12/18 10:10:50;;;;;;;85.00;34.67;;;7.90;1.00;;;;;;5114291;28;20232;-49
2023/12/18 10:13:16;;;;;;;84.90;34.10;;;7.90;1.00;;;;;;5114035;28;20169;-50
2023/12/18 10:15:42;;;;;;;79.80;34.90;;;7.90;1.00;;;;;;5113806;28;20653;-50
2023/12/18 10:18:09;;;;;;;71.23;34.23;;;7.90;1.00;;;;;;5114474;28;20204;-49
2023/12/18 10:20:35;;;;;;;77.27;33.37;;;8.00;1.00;;;;;;5114142;28;20561;-50
2023/12/18 10:23:02;;;;;;;71.47;32.67;;;8.00;1.00;;;;;;5112208;28;20418;-49
2023/12/18 10:25:27;;;;;;;78.10;33.67;;;8.00;1.00;;;;;;5113796;28;20731;-49
2023/12/18 10:27:56;;;;;;;79.27;32.27;;;8.00;1.00;;;;;;5113703;28;20428;-49
2023/12/18 10:30:25;;;;;;;84.23;33.60;;;8.10;1.00;;;;;;5113907;28;20205;-49
2023/12/18 10:32:54;;;;;;;74.27;33.10;;;8.10;1.00;;;;;;5113635;28;20491;-50
2023/12/18 10:35:22;;;;;;;81.63;33.57;;;8.00;1.00;;;;;;5113657;28;20458;-50
2023/12/18 10:37:52;;;;;;;71.87;32.30;;;8.00;1.00;;;;;;5113479;28;20920;-50
2023/12/18 10:40:19;;;;;;;64.37;31.80;;;8.00;1.00;;;;;;5112367;28;20888;-50
2023/12/18 10:43:06;;;;;;;72.60;31.70;;;8.00;1.00;;;;;;5113461;28;20426;-50
2023/12/18 10:45:33;;;;;;;63.30;31.43;;;8.10;1.00;;;;;;5095568;28;20480;-50
2023/12/18 10:48:00;;;;;;;63.90;31.00;;;8.10;1.00;;;;;;5113639;28;20418;-50
2023/12/18 10:50:30;;;;;;;73.57;32.20;;;8.10;1.00;;;;;;5113556;28;20418;-50
2023/12/18 10:52:58;;;;;;;65.20;31.70;;;8.10;1.00;;;;;;5113823;28;20417;-49
2023/12/18 10:55:26;;;;;;;74.43;34.27;;;8.10;1.00;;;;;;5113097;28;20564;-49
2023/12/18 10:57:54;;;;;;;71.03;31.47;;;8.10;1.00;;;;;;5113095;28;20437;-49
2023/12/18 11:00:21;;;;;;;84.27;34.50;;;8.10;1.00;;;;;;5113398;28;20436;-49
2023/12/18 11:02:47;;;;;;;65.13;32.47;;;8.00;1.00;;;;;;5113397;28;20406;-49
2023/12/18 11:05:14;;;;;;;66.23;31.43;;;8.00;1.00;;;;;;5111603;28;20419;-49
2023/12/18 11:07:41;;;;;;;80.63;33.67;;;8.00;1.00;;;;;;5113453;28;20925;-50
2023/12/18 11:10:07;;;;;;;62.27;31.37;;;8.00;1.00;;;;;;5113546;28;20418;-50
2023/12/18 11:12:36;;;;;;;76.77;31.20;;;8.00;1.00;;;;;;5113001;28;20422;-50
2023/12/18 11:15:20;;;;;;;69.47;32.00;;;8.00;1.00;;;;;;5113097;28;20466;-50
2023/12/18 11:18:20;;;;;;;76.33;31.50;;;8.00;1.00;;;;;;5112579;28;20410;-50
2023/12/18 11:20:46;;;;;;;73.43;31.47;;;8.00;1.00;;;;;;5113013;28;20414;-50
2023/12/18 11:23:13;;;;;;;70.90;31.87;;;8.00;1.00;;;;;;5112807;28;20560;-50
2023/12/18 11:25:47;;;;;;;63.90;32.23;;;8.00;1.00;;;;;;5113056;28;20946;-50
2023/12/18 11:28:12;;;;;;;64.77;32.70;;;8.00;1.00;;;;;;5112921;28;20414;-50
2023/12/18 11:30:42;;;;;;;82.83;33.10;;;8.00;1.00;;;;;;5113258;28;20405;-49
2023/12/18 11:33:10;;;;;;;83.33;31.73;;;8.00;1.00;;;;;;5113293;28;20190;-49
2023/12/18 11:35:37;;;;;;;80.90;33.40;;;8.00;1.00;;;;;;5112660;28;20469;-49
2023/12/18 11:38:08;;;;;;;70.53;33.17;;;8.00;1.00;;;;;;5110901;28;20498;-49
2023/12/18 11:40:36;;;;;;;82.43;34.07;;;8.00;1.00;;;;;;5112853;28;20403;-49
2023/12/18 11:43:03;;;;;;;60.37;31.87;;;8.00;1.00;;;;;;5112504;28;20436;-49
2023/12/18 11:45:30;;;;;;;65.97;30.73;;;8.10;1.00;;;;;;5112554;28;20447;-50
2023/12/18 11:47:57;;;;;;;83.13;31.93;;;8.10;1.00;;;;;;5112784;28;20468;-49
2023/12/18 11:50:24;;;;;;;77.50;32.20;;;8.00;1.00;;;;;;5112730;28;20428;-50
2023/12/18 11:52:53;;;;;;;71.13;31.30;;;8.10;1.00;;;;;;5112605;28;20442;-50
2023/12/18 11:55:39;;;;;;;72.97;33.00;;;8.10;1.00;;;;;;5112658;28;20555;-50
2023/12/18 11:58:06;;;;;;;71.50;32.90;;;8.00;1.00;;;;;;5111010;28;20781;-50
2023/12/18 12:00:32;;;;;;;63.93;31.97;;;8.00;1.00;;;;;;5112437;28;20433;-50
2023/12/18 12:02:58;;;;;;;67.97;31.30;;;8.10;1.00;;;;;;5112664;28;20424;-50
2023/12/18 12:05:27;;;;;;;77.43;33.30;;;8.00;1.00;;;;;;5112375;28;20505;-50
2023/12/18 12:07:53;;;;;;;71.97;32.30;;;8.00;1.00;;;;;;5112707;28;20466;-50
2023/12/18 12:10:20;;;;;;;83.77;32.63;;;8.00;1.00;;;;;;5116058;28;20418;-49
2023/12/18 12:12:53;;;;;;;75.13;33.30;;;8.00;1.00;;;;;;5116340;28;20924;-49
2023/12/18 12:15:19;;;;;;;75.10;33.00;;;8.00;1.00;;;;;;5116661;28;20465;-49
2023/12/18 12:17:44;;;;;;;79.17;32.20;;;8.00;1.00;;;;;;5116542;28;20414;-49
2023/12/18 12:20:14;;;;;;;74.40;31.77;;;8.00;1.00;;;;;;5116662;28;20451;-49
2023/12/18 12:22:39;;;;;;;67.40;31.90;;;8.00;1.00;;;;;;5116566;28;20191;-50
2023/12/18 12:25:05;;;;;;;61.53;31.17;;;8.10;1.00;;;;;;5116104;28;20455;-50
2023/12/18 12:27:31;;;;;;;71.20;31.63;;;8.10;1.00;;;;;;5116067;28;20169;-50
2023/12/18 12:29:57;;;;;;;74.33;32.13;;;8.10;1.00;;;;;;5116349;28;20409;-49
2023/12/18 12:32:24;;;;;;;64.87;30.97;;;8.10;1.00;;;;;;5116311;28;20637;-49
2023/12/18 12:34:50;;;;;;;67.10;30.40;;;8.10;1.00;;;;;;5116461;28;20204;-49
2023/12/18 12:37:16;;;;;;;86.23;32.33;;;8.10;1.00;;;;;;5116770;28;20419;-49